Terminal Aerodrome Forecast
Issued by NWS Sioux Falls, SD

Home | Current Version | Previous Version | Graphics & Text | Print | Product List | Glossary On
Versions: 1 2 3 4 5 6 7 8 9 10 11 12 13 14 15 16 17 18
000
FTUS43 KFSD 242005 AAA
TAFSUX
TAF AMD
KSUX 242005Z 2420/2518 02016KT P6SM VCSH OVC009
     FM250600 02011G20KT 6SM BR OVC008
     FM251600 02012KT P6SM OVC010=

USA.gov is the U.S. government's official web portal to all federal, state and local government web resources and services.